createdAt,value
2023-03-29T00:00:11.541Z,7.1
2023-03-29T00:05:11.218Z,7.1
2023-03-29T00:10:11.389Z,7.1
2023-03-29T00:15:11.186Z,7.1
2023-03-29T00:20:20.671Z,7.1
2023-03-29T00:25:11.401Z,7.5
2023-03-29T00:30:11.157Z,8.7
2023-03-29T00:35:11.198Z,8.7
2023-03-29T00:40:11.401Z,8.8
2023-03-29T00:45:11.161Z,9
2023-03-29T00:50:11.217Z,10
2023-03-29T00:55:11.234Z,10
2023-03-29T01:00:11.210Z,10
2023-03-29T01:05:11.272Z,9
2023-03-29T01:10:11.261Z,9.5
2023-03-29T01:15:11.309Z,9
2023-03-29T01:20:11.251Z,8.9
2023-03-29T01:25:11.317Z,8.9
2023-03-29T01:30:11.212Z,8.9
2023-03-29T01:35:11.219Z,8.2
2023-03-29T01:40:11.456Z,8.3
2023-03-29T01:45:11.188Z,8
2023-03-29T01:50:11.176Z,8.3
2023-03-29T01:55:12.367Z,8.3
2023-03-29T02:00:11.184Z,8
2023-03-29T02:05:11.151Z,6.7
2023-03-29T02:10:11.247Z,8
2023-03-29T02:15:11.194Z,8
2023-03-29T02:20:11.300Z,7.3
2023-03-29T02:25:11.208Z,7.3
2023-03-29T02:30:11.226Z,7.3
2023-03-29T02:35:11.260Z,8
2023-03-29T02:40:11.264Z,8
2023-03-29T02:45:11.171Z,8
2023-03-29T02:50:11.387Z,8
2023-03-29T02:55:11.238Z,9.2
2023-03-29T03:00:11.246Z,9.2
2023-03-29T03:05:13.708Z,9.2
2023-03-29T03:10:11.268Z,8.8
2023-03-29T03:15:11.222Z,8.8
2023-03-29T03:20:11.266Z,8.5
2023-03-29T03:25:11.221Z,8.5
2023-03-29T03:30:11.232Z,8
2023-03-29T03:35:11.198Z,8
2023-03-29T03:40:11.229Z,8.5
2023-03-29T03:45:17.087Z,8.5
2023-03-29T03:50:11.254Z,9.6
2023-03-29T03:55:11.227Z,9.6
2023-03-29T04:00:11.295Z,8.3
2023-03-29T04:05:11.229Z,9.3
2023-03-29T04:10:11.307Z,9.3
2023-03-29T04:15:11.185Z,8.8
2023-03-29T04:20:11.835Z,8.8
2023-03-29T04:25:11.390Z,8.3
2023-03-29T04:30:11.222Z,8.8
2023-03-29T04:35:11.296Z,9.2
2023-03-29T04:40:11.284Z,9.2
2023-03-29T04:45:11.290Z,9.3
2023-03-29T04:50:11.252Z,10.1
2023-03-29T04:55:11.231Z,10.1
2023-03-29T05:00:11.236Z,10.1
2023-03-29T05:05:11.215Z,10.1
2023-03-29T05:10:11.269Z,10.5
2023-03-29T05:15:11.237Z,10.5
2023-03-29T05:20:11.323Z,10.8
2023-03-29T05:25:11.232Z,10.8
2023-03-29T05:30:11.268Z,11
2023-03-29T05:35:11.278Z,11.7
2023-03-29T05:40:11.375Z,11
2023-03-29T05:45:11.214Z,10.8
2023-03-29T05:50:11.268Z,11
2023-03-29T05:55:11.374Z,10
2023-03-29T06:00:13.390Z,10.4
2023-03-29T06:05:11.349Z,10.3
2023-03-29T06:10:11.338Z,10.3
2023-03-29T06:15:11.288Z,10.4
2023-03-29T06:20:11.299Z,11
2023-03-29T06:25:11.342Z,10.4
2023-03-29T06:30:11.385Z,11
2023-03-29T06:35:11.423Z,11
2023-03-29T06:40:11.603Z,11
2023-03-29T06:45:14.636Z,10.8
2023-03-29T06:50:11.298Z,10.8
2023-03-29T06:55:11.357Z,10.6
2023-03-29T07:00:11.272Z,10.6
2023-03-29T07:05:11.390Z,10.6
2023-03-29T07:10:11.312Z,10.6
2023-03-29T07:15:11.272Z,10.5
2023-03-29T07:20:11.272Z,10.5
2023-03-29T07:25:11.242Z,10.1
2023-03-29T07:30:11.368Z,10
2023-03-29T07:35:11.256Z,10.1
2023-03-29T07:40:11.327Z,10
2023-03-29T07:45:11.304Z,9.1
2023-03-29T07:50:11.370Z,8.6
2023-03-29T07:55:11.263Z,8.6
2023-03-29T08:00:11.260Z,8.6
2023-03-29T08:05:11.314Z,8.6
2023-03-29T08:10:11.407Z,7.7
2023-03-29T08:15:11.318Z,8.6
2023-03-29T08:20:11.311Z,8.7
2023-03-29T08:25:11.413Z,8.9
2023-03-29T08:30:11.496Z,8.9
2023-03-29T08:35:11.268Z,8.9
2023-03-29T08:40:11.391Z,9.3
2023-03-29T08:45:11.316Z,9.3
2023-03-29T08:50:11.733Z,9.3
2023-03-29T08:55:11.278Z,9.3
2023-03-29T09:00:11.296Z,8
2023-03-29T09:05:11.274Z,8
2023-03-29T09:10:11.343Z,7.4
2023-03-29T09:15:11.316Z,7.4
2023-03-29T09:20:11.309Z,8
2023-03-29T09:25:11.307Z,8
2023-03-29T09:30:11.290Z,8
2023-03-29T09:35:11.298Z,7.7
2023-03-29T09:40:11.318Z,7
2023-03-29T09:45:11.291Z,5.9
2023-03-29T09:50:27.627Z,5.8
2023-03-29T09:55:11.374Z,5.8
2023-03-29T10:00:11.303Z,5.8
2023-03-29T10:05:11.317Z,5.8
2023-03-29T10:10:11.403Z,5.4
2023-03-29T10:15:23.184Z,5.4
2023-03-29T10:20:11.314Z,6
2023-03-29T10:25:11.458Z,7.2
2023-03-29T10:30:11.411Z,6
2023-03-29T10:35:11.308Z,6
2023-03-29T10:40:12.329Z,6
2023-03-29T10:45:11.291Z,6.1
2023-03-29T10:50:11.317Z,6
2023-03-29T10:55:11.377Z,6.1
2023-03-29T11:00:11.432Z,5.1
2023-03-29T11:05:11.323Z,6
2023-03-29T11:10:11.891Z,6
2023-03-29T11:15:11.343Z,6
2023-03-29T11:20:11.346Z,6
2023-03-29T11:25:11.429Z,6
2023-03-29T11:30:11.881Z,5.9
2023-03-29T11:35:11.401Z,5.9
2023-03-29T11:40:11.534Z,5.9
2023-03-29T11:45:11.357Z,6.6
2023-03-29T11:50:11.422Z,6.8
2023-03-29T11:55:13.607Z,6.8
2023-03-29T12:00:11.286Z,6.8
2023-03-29T12:05:11.308Z,6.8
2023-03-29T12:10:11.429Z,6.8
2023-03-29T12:15:11.713Z,6.8
2023-03-29T12:20:11.328Z,6.8
2023-03-29T12:25:11.315Z,6.8
2023-03-29T12:30:11.449Z,6.6
2023-03-29T12:35:11.584Z,6.6
2023-03-29T12:40:11.877Z,6.6
2023-03-29T12:45:11.388Z,6.6
2023-03-29T12:50:11.492Z,6.4
2023-03-29T12:55:11.412Z,6.4
2023-03-29T13:00:11.375Z,6.4
2023-03-29T13:05:11.388Z,6.4
2023-03-29T13:10:11.376Z,6.4
2023-03-29T13:15:11.324Z,7.8
2023-03-29T13:20:11.703Z,7.8
2023-03-29T13:25:11.382Z,7.8
2023-03-29T13:30:11.392Z,7.9
2023-03-29T13:35:11.338Z,8.7
2023-03-29T13:40:11.331Z,9.6
2023-03-29T13:45:11.462Z,9.1
2023-03-29T13:50:11.443Z,8.7
2023-03-29T13:55:11.448Z,7.9
2023-03-29T14:00:11.565Z,7.9
2023-03-29T14:05:11.451Z,7.3
2023-03-29T14:10:11.419Z,7
2023-03-29T14:15:11.508Z,7
2023-03-29T14:20:11.378Z,7
2023-03-29T14:35:11.585Z,7.2
2023-03-29T14:40:11.401Z,7.95
2023-03-29T14:45:11.379Z,8.3
2023-03-29T14:50:11.520Z,7.75
2023-03-29T14:55:11.361Z,7.2
2023-03-29T15:06:42.069Z,8.1
2023-03-29T15:10:15.488Z,6.5
2023-03-29T15:15:16.530Z,5.6
2023-03-29T15:20:15.507Z,5.4
2023-03-29T15:25:15.415Z,5.6
2023-03-29T15:30:15.411Z,5.95
2023-03-29T15:35:15.581Z,6.3
2023-03-29T15:40:18.604Z,6.3
2023-03-29T15:45:15.450Z,7.4
2023-03-29T15:50:15.655Z,7.5
2023-03-29T15:55:15.652Z,7.5
2023-03-29T16:00:15.485Z,7.5
2023-03-29T16:05:15.435Z,7.5
2023-03-29T16:10:15.403Z,7.5
2023-03-29T16:15:15.411Z,7.5
2023-03-29T16:20:15.378Z,7.2
2023-03-29T16:25:15.449Z,7.2
2023-03-29T16:30:15.402Z,7.2
2023-03-29T16:35:15.535Z,6.4
2023-03-29T16:40:15.560Z,6.4
2023-03-29T16:45:15.423Z,6.2
2023-03-29T16:50:15.448Z,6.2
2023-03-29T16:55:15.603Z,6.4
2023-03-29T17:00:15.463Z,6.4
2023-03-29T17:15:15.556Z,15.8
2023-03-29T17:20:15.646Z,29.05
2023-03-29T17:25:16.619Z,42.3
2023-03-29T17:30:15.588Z,33
2023-03-29T17:35:15.700Z,23.7
2023-03-29T17:50:15.580Z,11
2023-03-29T17:55:15.624Z,11.15
2023-03-29T18:05:24.409Z,15.8
2023-03-29T18:20:22.640Z,47.3
2023-03-29T18:30:22.492Z,10.6
2023-03-29T18:40:22.521Z,11.8
2023-03-29T18:45:22.443Z,12.95
2023-03-29T18:50:22.477Z,13.3
2023-03-29T18:55:22.508Z,13.7
2023-03-29T19:00:22.458Z,14.1
2023-03-29T19:10:39.575Z,12.6
2023-03-29T19:15:40.645Z,10.25
2023-03-29T19:20:23.941Z,12.6
2023-03-29T19:40:39.724Z,14.2
2023-03-29T19:45:54.557Z,11.3
2023-03-29T19:50:39.564Z,13.4
2023-03-29T19:55:39.550Z,11.3
2023-03-29T20:00:40.922Z,10.6
2023-03-29T20:05:39.633Z,11.3
2023-03-29T20:16:40.080Z,8
2023-03-29T20:20:40.081Z,9
2023-03-29T20:25:39.626Z,8.5
2023-03-29T20:30:39.531Z,9.2
2023-03-29T20:35:39.696Z,8.5
2023-03-29T20:40:39.562Z,8.25
2023-03-29T20:45:51.923Z,8.5
2023-03-29T20:50:41.458Z,8.5
2023-03-29T20:55:39.604Z,7.7
2023-03-29T21:00:39.641Z,7.7
2023-03-29T21:05:40.657Z,6.7
2023-03-29T21:10:39.545Z,6.1
2023-03-29T21:15:39.515Z,6.6
2023-03-29T21:20:39.591Z,6.6
2023-03-29T21:25:39.711Z,6.7
2023-03-29T21:30:39.467Z,7.7
2023-03-29T21:35:39.502Z,7.4
2023-03-29T21:40:39.458Z,7.7
2023-03-29T21:45:39.462Z,7.7
2023-03-29T21:50:39.570Z,8
2023-03-29T21:55:39.500Z,8
2023-03-29T22:00:39.532Z,8.2
2023-03-29T22:05:39.505Z,8
2023-03-29T22:10:39.574Z,8
2023-03-29T22:15:39.617Z,7.2
2023-03-29T22:20:39.577Z,7.2
2023-03-29T22:25:39.503Z,7.2
2023-03-29T22:30:39.462Z,7.2
2023-03-29T22:35:39.743Z,6.7
2023-03-29T22:40:39.502Z,6.3
2023-03-29T22:45:39.554Z,6.3
2023-03-29T22:50:39.574Z,7.6
2023-03-29T22:55:39.564Z,7.6
2023-03-29T23:00:39.570Z,7.3
2023-03-29T23:05:39.687Z,6.2
2023-03-29T23:10:39.500Z,6.7
2023-03-29T23:15:39.686Z,7.3
2023-03-29T23:20:39.623Z,6.7
2023-03-29T23:25:39.593Z,6.7
2023-03-29T23:30:39.543Z,6.2
2023-03-29T23:35:39.539Z,6.1
2023-03-29T23:40:39.500Z,6
2023-03-29T23:45:39.460Z,6
2023-03-29T23:50:39.558Z,5.1
2023-03-29T23:55:39.480Z,5.1
